sensor_id;sensor_type;location;lat;lon;timestamp;temperature;humidity
68189;DHT22;66299;47.514;19.218;2023-08-01T00:00:11;14.92;89.08
68189;DHT22;66299;47.514;19.218;2023-08-01T00:02:42;14.79;89.17
68189;DHT22;66299;47.514;19.218;2023-08-01T00:05:11;14.78;89.38
68189;DHT22;66299;47.514;19.218;2023-08-01T00:07:43;14.71;89.53
68189;DHT22;66299;47.514;19.218;2023-08-01T00:10:13;14.65;89.34
68189;DHT22;66299;47.514;19.218;2023-08-01T00:12:44;14.63;89.31
68189;DHT22;66299;47.514;19.218;2023-08-01T00:15:13;14.56;89.68
68189;DHT22;66299;47.514;19.218;2023-08-01T00:17:43;14.49;89.98
68189;DHT22;66299;47.514;19.218;2023-08-01T00:20:13;14.57;89.94
68189;DHT22;66299;47.514;19.218;2023-08-01T00:22:42;14.61;89.73
68189;DHT22;66299;47.514;19.218;2023-08-01T00:25:13;14.61;89.39
68189;DHT22;66299;47.514;19.218;2023-08-01T00:27:42;14.60;89.88
68189;DHT22;66299;47.514;19.218;2023-08-01T00:30:13;14.67;89.94
68189;DHT22;66299;47.514;19.218;2023-08-01T00:32:42;14.56;89.51
68189;DHT22;66299;47.514;19.218;2023-08-01T00:35:11;14.61;89.86
68189;DHT22;66299;47.514;19.218;2023-08-01T00:37:39;14.44;89.95
68189;DHT22;66299;47.514;19.218;2023-08-01T00:40:09;14.47;90.63
68189;DHT22;66299;47.514;19.218;2023-08-01T00:42:43;14.36;90.49
68189;DHT22;66299;47.514;19.218;2023-08-01T00:45:13;14.27;90.78
68189;DHT22;66299;47.514;19.218;2023-08-01T00:47:47;14.26;91.24
68189;DHT22;66299;47.514;19.218;2023-08-01T00:50:16;14.30;91.18
68189;DHT22;66299;47.514;19.218;2023-08-01T00:52:49;14.33;91.06
68189;DHT22;66299;47.514;19.218;2023-08-01T00:55:21;14.23;91.09
68189;DHT22;66299;47.514;19.218;2023-08-01T00:57:53;14.14;91.21
68189;DHT22;66299;47.514;19.218;2023-08-01T01:00:24;14.14;91.67
68189;DHT22;66299;47.514;19.218;2023-08-01T01:02:55;14.14;91.49
68189;DHT22;66299;47.514;19.218;2023-08-01T01:05:27;14.17;91.11
68189;DHT22;66299;47.514;19.218;2023-08-01T01:08:00;14.21;90.97
68189;DHT22;66299;47.514;19.218;2023-08-01T01:10:32;14.13;91.20
68189;DHT22;66299;47.514;19.218;2023-08-01T01:13:04;14.05;91.52
68189;DHT22;66299;47.514;19.218;2023-08-01T01:15:33;14.06;91.61
68189;DHT22;66299;47.514;19.218;2023-08-01T01:18:02;14.14;91.78
68189;DHT22;66299;47.514;19.218;2023-08-01T01:20:34;14.10;91.35
68189;DHT22;66299;47.514;19.218;2023-08-01T01:23:05;14.10;91.64
68189;DHT22;66299;47.514;19.218;2023-08-01T01:25:35;14.05;91.46
68189;DHT22;66299;47.514;19.218;2023-08-01T01:28:07;14.05;91.82
68189;DHT22;66299;47.514;19.218;2023-08-01T01:30:35;13.98;91.92
68189;DHT22;66299;47.514;19.218;2023-08-01T01:33:07;13.89;91.89
68189;DHT22;66299;47.514;19.218;2023-08-01T01:35:40;13.93;92.03
68189;DHT22;66299;47.514;19.218;2023-08-01T01:38:09;13.99;91.79
68189;DHT22;66299;47.514;19.218;2023-08-01T01:40:38;14.05;91.51
68189;DHT22;66299;47.514;19.218;2023-08-01T01:43:08;14.03;91.49
68189;DHT22;66299;47.514;19.218;2023-08-01T01:45:38;14.03;91.52
68189;DHT22;66299;47.514;19.218;2023-08-01T01:48:09;13.96;91.38
68189;DHT22;66299;47.514;19.218;2023-08-01T01:50:41;13.93;91.45
68189;DHT22;66299;47.514;19.218;2023-08-01T01:53:10;13.96;91.18
68189;DHT22;66299;47.514;19.218;2023-08-01T01:55:39;13.87;91.51
68189;DHT22;66299;47.514;19.218;2023-08-01T01:58:12;13.89;91.62
68189;DHT22;66299;47.514;19.218;2023-08-01T02:00:45;13.90;91.80
68189;DHT22;66299;47.514;19.218;2023-08-01T02:03:14;13.92;91.44
68189;DHT22;66299;47.514;19.218;2023-08-01T02:05:46;13.93;91.40
68189;DHT22;66299;47.514;19.218;2023-08-01T02:08:16;14.07;91.43
68189;DHT22;66299;47.514;19.218;2023-08-01T02:10:51;14.00;91.27
68189;DHT22;66299;47.514;19.218;2023-08-01T02:13:20;14.06;91.14
68189;DHT22;66299;47.514;19.218;2023-08-01T02:15:50;13.98;91.23
68189;DHT22;66299;47.514;19.218;2023-08-01T02:18:21;13.96;91.29
68189;DHT22;66299;47.514;19.218;2023-08-01T02:20:56;13.90;91.38
68189;DHT22;66299;47.514;19.218;2023-08-01T02:23:29;13.90;91.38
68189;DHT22;66299;47.514;19.218;2023-08-01T02:25:59;13.92;91.41
68189;DHT22;66299;47.514;19.218;2023-08-01T02:28:28;13.92;91.65
68189;DHT22;66299;47.514;19.218;2023-08-01T02:30:56;13.96;91.40
68189;DHT22;66299;47.514;19.218;2023-08-01T02:33:26;13.92;91.49
68189;DHT22;66299;47.514;19.218;2023-08-01T02:35:56;13.93;91.51
68189;DHT22;66299;47.514;19.218;2023-08-01T02:38:25;13.93;91.33
68189;DHT22;66299;47.514;19.218;2023-08-01T02:40:54;13.87;91.18
68189;DHT22;66299;47.514;19.218;2023-08-01T02:43:28;13.82;91.46
68189;DHT22;66299;47.514;19.218;2023-08-01T02:46:00;13.86;91.57
68189;DHT22;66299;47.514;19.218;2023-08-01T02:48:35;13.87;91.58
68189;DHT22;66299;47.514;19.218;2023-08-01T02:51:05;13.85;91.72
68189;DHT22;66299;47.514;19.218;2023-08-01T02:53:36;13.92;91.39
68189;DHT22;66299;47.514;19.218;2023-08-01T02:56:08;13.98;91.26
68189;DHT22;66299;47.514;19.218;2023-08-01T02:58:37;13.96;91.18
68189;DHT22;66299;47.514;19.218;2023-08-01T03:01:06;13.98;91.24
68189;DHT22;66299;47.514;19.218;2023-08-01T03:03:43;13.95;91.36
68189;DHT22;66299;47.514;19.218;2023-08-01T03:06:13;13.92;91.32
68189;DHT22;66299;47.514;19.218;2023-08-01T03:08:47;13.86;91.28
68189;DHT22;66299;47.514;19.218;2023-08-01T03:11:15;13.96;90.77
68189;DHT22;66299;47.514;19.218;2023-08-01T03:13:47;13.92;91.07
68189;DHT22;66299;47.514;19.218;2023-08-01T03:16:16;13.86;91.42
68189;DHT22;66299;47.514;19.218;2023-08-01T03:18:49;13.87;91.52
68189;DHT22;66299;47.514;19.218;2023-08-01T03:21:19;13.76;91.78
68189;DHT22;66299;47.514;19.218;2023-08-01T03:23:51;13.71;92.08
68189;DHT22;66299;47.514;19.218;2023-08-01T03:26:28;13.69;92.21
68189;DHT22;66299;47.514;19.218;2023-08-01T03:28:57;13.75;92.00
68189;DHT22;66299;47.514;19.218;2023-08-01T03:31:30;13.79;92.00
68189;DHT22;66299;47.514;19.218;2023-08-01T03:34:01;13.80;91.92
68189;DHT22;66299;47.514;19.218;2023-08-01T03:36:31;13.80;91.92
68189;DHT22;66299;47.514;19.218;2023-08-01T03:39:05;13.86;92.03
68189;DHT22;66299;47.514;19.218;2023-08-01T03:41:34;13.85;91.92
68189;DHT22;66299;47.514;19.218;2023-08-01T03:44:06;13.86;91.99
68189;DHT22;66299;47.514;19.218;2023-08-01T03:46:39;13.89;92.09
68189;DHT22;66299;47.514;19.218;2023-08-01T03:49:12;13.90;91.95
68189;DHT22;66299;47.514;19.218;2023-08-01T03:51:44;13.92;92.18
68189;DHT22;66299;47.514;19.218;2023-08-01T03:54:13;14.02;91.78
68189;DHT22;66299;47.514;19.218;2023-08-01T03:56:43;14.19;91.51
68189;DHT22;66299;47.514;19.218;2023-08-01T03:59:15;14.19;91.67
68189;DHT22;66299;47.514;19.218;2023-08-01T04:01:44;14.23;91.76
68189;DHT22;66299;47.514;19.218;2023-08-01T04:04:17;14.28;91.48
68189;DHT22;66299;47.514;19.218;2023-08-01T04:06:49;14.38;91.28
68189;DHT22;66299;47.514;19.218;2023-08-01T04:09:19;14.47;91.18
68189;DHT22;66299;47.514;19.218;2023-08-01T04:11:54;14.54;91.09
68189;DHT22;66299;47.514;19.218;2023-08-01T04:14:26;14.65;90.75
68189;DHT22;66299;47.514;19.218;2023-08-01T04:16:56;14.72;90.35
68189;DHT22;66299;47.514;19.218;2023-08-01T04:19:28;14.88;89.77
68189;DHT22;66299;47.514;19.218;2023-08-01T04:21:59;15.00;89.86
68189;DHT22;66299;47.514;19.218;2023-08-01T04:24:29;15.09;89.08
68189;DHT22;66299;47.514;19.218;2023-08-01T04:26:58;15.12;89.55
68189;DHT22;66299;47.514;19.218;2023-08-01T04:29:27;15.22;88.96
68189;DHT22;66299;47.514;19.218;2023-08-01T04:31:57;15.32;89.14
68189;DHT22;66299;47.514;19.218;2023-08-01T04:34:27;15.40;88.93
68189;DHT22;66299;47.514;19.218;2023-08-01T04:36:58;15.43;89.26
68189;DHT22;66299;47.514;19.218;2023-08-01T04:39:28;15.53;89.05
68189;DHT22;66299;47.514;19.218;2023-08-01T04:42:02;15.70;88.52
68189;DHT22;66299;47.514;19.218;2023-08-01T04:44:40;15.74;88.37
68189;DHT22;66299;47.514;19.218;2023-08-01T04:47:10;15.90;88.46
68189;DHT22;66299;47.514;19.218;2023-08-01T04:49:41;16.00;88.10
68189;DHT22;66299;47.514;19.218;2023-08-01T04:52:19;16.05;88.27
68189;DHT22;66299;47.514;19.218;2023-08-01T04:54:47;16.15;88.38
68189;DHT22;66299;47.514;19.218;2023-08-01T04:57:20;16.28;87.86
68189;DHT22;66299;47.514;19.218;2023-08-01T04:59:51;16.59;87.41
68189;DHT22;66299;47.514;19.218;2023-08-01T05:02:23;16.84;86.57
68189;DHT22;66299;47.514;19.218;2023-08-01T05:04:51;17.08;85.68
68189;DHT22;66299;47.514;19.218;2023-08-01T05:07:24;17.19;85.35
68189;DHT22;66299;47.514;19.218;2023-08-01T05:09:54;17.39;84.57
68189;DHT22;66299;47.514;19.218;2023-08-01T05:12:26;17.43;84.95
68189;DHT22;66299;47.514;19.218;2023-08-01T05:14:56;17.49;84.92
68189;DHT22;66299;47.514;19.218;2023-08-01T05:17:25;17.43;84.90
68189;DHT22;66299;47.514;19.218;2023-08-01T05:19:55;17.46;84.92
68189;DHT22;66299;47.514;19.218;2023-08-01T05:22:25;17.56;85.15
68189;DHT22;66299;47.514;19.218;2023-08-01T05:24:54;17.66;84.96
68189;DHT22;66299;47.514;19.218;2023-08-01T05:27:24;17.72;85.50
68189;DHT22;66299;47.514;19.218;2023-08-01T05:29:56;17.82;85.31
68189;DHT22;66299;47.514;19.218;2023-08-01T05:32:24;17.93;84.48
68189;DHT22;66299;47.514;19.218;2023-08-01T05:34:56;18.01;85.08
68189;DHT22;66299;47.514;19.218;2023-08-01T05:37:27;18.08;84.29
68189;DHT22;66299;47.514;19.218;2023-08-01T05:39:55;18.37;83.71
68189;DHT22;66299;47.514;19.218;2023-08-01T05:42:23;18.38;83.93
68189;DHT22;66299;47.514;19.218;2023-08-01T05:44:52;18.42;84.31
68189;DHT22;66299;47.514;19.218;2023-08-01T05:47:22;18.65;83.47
68189;DHT22;66299;47.514;19.218;2023-08-01T05:49:53;18.88;82.13
68189;DHT22;66299;47.514;19.218;2023-08-01T05:52:21;19.06;81.86
68189;DHT22;66299;47.514;19.218;2023-08-01T05:54:52;19.17;82.47
68189;DHT22;66299;47.514;19.218;2023-08-01T05:57:21;19.38;81.80
68189;DHT22;66299;47.514;19.218;2023-08-01T05:59:49;19.43;82.77
68189;DHT22;66299;47.514;19.218;2023-08-01T06:02:18;19.57;81.86
68189;DHT22;66299;47.514;19.218;2023-08-01T06:04:47;19.71;80.98
68189;DHT22;66299;47.514;19.218;2023-08-01T06:07:16;19.86;80.89
68189;DHT22;66299;47.514;19.218;2023-08-01T06:09:51;20.02;80.01
68189;DHT22;66299;47.514;19.218;2023-08-01T06:12:20;20.17;79.39
68189;DHT22;66299;47.514;19.218;2023-08-01T06:14:48;20.22;79.77
68189;DHT22;66299;47.514;19.218;2023-08-01T06:17:21;20.36;79.71
68189;DHT22;66299;47.514;19.218;2023-08-01T06:19:50;20.60;79.14
68189;DHT22;66299;47.514;19.218;2023-08-01T06:22:23;20.67;78.06
68189;DHT22;66299;47.514;19.218;2023-08-01T06:24:53;20.81;78.39
68189;DHT22;66299;47.514;19.218;2023-08-01T06:27:22;20.96;78.07
68189;DHT22;66299;47.514;19.218;2023-08-01T06:29:51;21.01;78.12
68189;DHT22;66299;47.514;19.218;2023-08-01T06:32:23;21.13;77.04
68189;DHT22;66299;47.514;19.218;2023-08-01T06:34:57;21.32;76.40
68189;DHT22;66299;47.514;19.218;2023-08-01T06:37:27;21.39;76.53
68189;DHT22;66299;47.514;19.218;2023-08-01T06:39:58;21.53;76.41
68189;DHT22;66299;47.514;19.218;2023-08-01T06:42:29;21.73;75.63
68189;DHT22;66299;47.514;19.218;2023-08-01T06:44:58;21.97;75.09
68189;DHT22;66299;47.514;19.218;2023-08-01T06:47:27;22.04;74.79
68189;DHT22;66299;47.514;19.218;2023-08-01T06:49:57;22.19;73.80
68189;DHT22;66299;47.514;19.218;2023-08-01T06:52:26;22.35;74.79
68189;DHT22;66299;47.514;19.218;2023-08-01T06:54:54;22.38;72.75
68189;DHT22;66299;47.514;19.218;2023-08-01T06:57:25;22.51;73.08
68189;DHT22;66299;47.514;19.218;2023-08-01T06:59:55;22.57;72.68
68189;DHT22;66299;47.514;19.218;2023-08-01T07:02:23;22.67;73.15
68189;DHT22;66299;47.514;19.218;2023-08-01T07:04:52;22.80;72.66
68189;DHT22;66299;47.514;19.218;2023-08-01T07:07:23;22.96;72.24
68189;DHT22;66299;47.514;19.218;2023-08-01T07:09:52;23.17;71.46
68189;DHT22;66299;47.514;19.218;2023-08-01T07:12:26;23.28;70.79
68189;DHT22;66299;47.514;19.218;2023-08-01T07:14:55;23.41;70.68
68189;DHT22;66299;47.514;19.218;2023-08-01T07:17:28;23.45;70.37
68189;DHT22;66299;47.514;19.218;2023-08-01T07:20:00;23.45;70.44
68189;DHT22;66299;47.514;19.218;2023-08-01T07:22:28;23.62;70.01
68189;DHT22;66299;47.514;19.218;2023-08-01T07:24:58;23.68;69.01
68189;DHT22;66299;47.514;19.218;2023-08-01T07:27:29;23.93;68.94
68189;DHT22;66299;47.514;19.218;2023-08-01T07:29:58;23.96;68.15
68189;DHT22;66299;47.514;19.218;2023-08-01T07:32:27;24.08;68.63
68189;DHT22;66299;47.514;19.218;2023-08-01T07:34:58;24.34;69.13
68189;DHT22;66299;47.514;19.218;2023-08-01T07:37:27;24.43;67.65
68189;DHT22;66299;47.514;19.218;2023-08-01T07:39:58;24.56;67.55
68189;DHT22;66299;47.514;19.218;2023-08-01T07:42:29;24.78;67.35
68189;DHT22;66299;47.514;19.218;2023-08-01T07:44:59;24.98;67.38
68189;DHT22;66299;47.514;19.218;2023-08-01T07:47:28;25.12;66.09
68189;DHT22;66299;47.514;19.218;2023-08-01T07:49:58;25.15;65.25
68189;DHT22;66299;47.514;19.218;2023-08-01T07:52:27;25.19;65.18
68189;DHT22;66299;47.514;19.218;2023-08-01T07:54:58;25.05;65.24
68189;DHT22;66299;47.514;19.218;2023-08-01T07:57:31;25.08;64.33
68189;DHT22;66299;47.514;19.218;2023-08-01T08:00:05;25.43;64.71
68189;DHT22;66299;47.514;19.218;2023-08-01T08:02:38;25.64;64.01
68189;DHT22;66299;47.514;19.218;2023-08-01T08:05:10;25.59;63.37
68189;DHT22;66299;47.514;19.218;2023-08-01T08:07:45;25.67;62.91
68189;DHT22;66299;47.514;19.218;2023-08-01T08:10:14;25.77;62.88
68189;DHT22;66299;47.514;19.218;2023-08-01T08:12:49;25.71;63.78
68189;DHT22;66299;47.514;19.218;2023-08-01T08:15:21;25.87;62.69
68189;DHT22;66299;47.514;19.218;2023-08-01T08:17:51;26.00;62.51
68189;DHT22;66299;47.514;19.218;2023-08-01T08:20:22;26.14;62.79
68189;DHT22;66299;47.514;19.218;2023-08-01T08:22:53;26.26;62.34
68189;DHT22;66299;47.514;19.218;2023-08-01T08:25:26;26.38;62.39
68189;DHT22;66299;47.514;19.218;2023-08-01T08:27:56;26.45;61.19
68189;DHT22;66299;47.514;19.218;2023-08-01T08:30:27;26.38;61.56
68189;DHT22;66299;47.514;19.218;2023-08-01T08:33:03;26.49;61.86
68189;DHT22;66299;47.514;19.218;2023-08-01T08:35:34;26.11;61.13
68189;DHT22;66299;47.514;19.218;2023-08-01T08:38:04;25.95;61.48
68189;DHT22;66299;47.514;19.218;2023-08-01T08:40:40;26.25;61.32
68189;DHT22;66299;47.514;19.218;2023-08-01T08:43:13;26.43;60.89
68189;DHT22;66299;47.514;19.218;2023-08-01T08:45:46;26.57;61.27
68189;DHT22;66299;47.514;19.218;2023-08-01T08:48:19;26.56;61.03
68189;DHT22;66299;47.514;19.218;2023-08-01T08:50:51;26.86;60.22
68189;DHT22;66299;47.514;19.218;2023-08-01T08:53:23;27.12;60.64
68189;DHT22;66299;47.514;19.218;2023-08-01T08:55:56;27.07;60.64
68189;DHT22;66299;47.514;19.218;2023-08-01T08:58:27;27.34;59.84
68189;DHT22;66299;47.514;19.218;2023-08-01T09:00:58;27.11;58.82
68189;DHT22;66299;47.514;19.218;2023-08-01T09:03:32;27.14;58.40
68189;DHT22;66299;47.514;19.218;2023-08-01T09:06:07;27.65;59.09
68189;DHT22;66299;47.514;19.218;2023-08-01T09:08:44;27.88;56.96
68189;DHT22;66299;47.514;19.218;2023-08-01T09:11:19;27.92;56.00
68189;DHT22;66299;47.514;19.218;2023-08-01T09:13:51;27.75;55.50
68189;DHT22;66299;47.514;19.218;2023-08-01T09:16:19;27.97;55.31
68189;DHT22;66299;47.514;19.218;2023-08-01T09:18:52;27.99;55.00
68189;DHT22;66299;47.514;19.218;2023-08-01T09:21:23;27.97;55.85
68189;DHT22;66299;47.514;19.218;2023-08-01T09:23:53;28.03;55.46
68189;DHT22;66299;47.514;19.218;2023-08-01T09:26:24;28.48;55.16
68189;DHT22;66299;47.514;19.218;2023-08-01T09:29:00;28.75;54.13
68189;DHT22;66299;47.514;19.218;2023-08-01T09:31:33;28.67;53.74
68189;DHT22;66299;47.514;19.218;2023-08-01T09:34:03;28.27;54.18
68189;DHT22;66299;47.514;19.218;2023-08-01T09:36:32;28.34;55.08
68189;DHT22;66299;47.514;19.218;2023-08-01T09:39:04;28.69;53.59
68189;DHT22;66299;47.514;19.218;2023-08-01T09:41:35;28.85;53.73
68189;DHT22;66299;47.514;19.218;2023-08-01T09:44:11;29.22;53.79
68189;DHT22;66299;47.514;19.218;2023-08-01T09:46:54;28.80;53.05
68189;DHT22;66299;47.514;19.218;2023-08-01T09:49:25;28.91;53.84
68189;DHT22;66299;47.514;19.218;2023-08-01T09:51:53;28.69;54.46
68189;DHT22;66299;47.514;19.218;2023-08-01T09:54:29;28.24;54.73
68189;DHT22;66299;47.514;19.218;2023-08-01T09:57:00;28.44;53.98
68189;DHT22;66299;47.514;19.218;2023-08-01T09:59:34;28.69;53.89
68189;DHT22;66299;47.514;19.218;2023-08-01T10:02:16;28.89;52.77
68189;DHT22;66299;47.514;19.218;2023-08-01T10:04:50;28.44;51.28
68189;DHT22;66299;47.514;19.218;2023-08-01T10:07:24;28.48;52.56
68189;DHT22;66299;47.514;19.218;2023-08-01T10:09:59;28.69;53.03
68189;DHT22;66299;47.514;19.218;2023-08-01T10:12:31;29.23;52.47
68189;DHT22;66299;47.514;19.218;2023-08-01T10:15:09;29.70;51.71
68189;DHT22;66299;47.514;19.218;2023-08-01T10:17:39;28.94;52.93
68189;DHT22;66299;47.514;19.218;2023-08-01T10:20:11;29.10;52.61
68189;DHT22;66299;47.514;19.218;2023-08-01T10:22:43;28.98;52.49
68189;DHT22;66299;47.514;19.218;2023-08-01T10:25:22;28.76;51.49
68189;DHT22;66299;47.514;19.218;2023-08-01T10:28:02;29.63;50.26
68189;DHT22;66299;47.514;19.218;2023-08-01T10:30:35;29.81;51.67
68189;DHT22;66299;47.514;19.218;2023-08-01T10:33:08;29.58;50.25
68189;DHT22;66299;47.514;19.218;2023-08-01T10:35:41;29.47;51.18
68189;DHT22;66299;47.514;19.218;2023-08-01T10:38:11;29.38;50.21
68189;DHT22;66299;47.514;19.218;2023-08-01T10:40:43;29.61;49.62
68189;DHT22;66299;47.514;19.218;2023-08-01T10:43:24;30.04;48.67
68189;DHT22;66299;47.514;19.218;2023-08-01T10:46:07;30.19;48.31
68189;DHT22;66299;47.514;19.218;2023-08-01T10:48:49;29.34;49.11
68189;DHT22;66299;47.514;19.218;2023-08-01T10:51:20;29.49;48.37
68189;DHT22;66299;47.514;19.218;2023-08-01T10:53:50;29.63;48.37
68189;DHT22;66299;47.514;19.218;2023-08-01T10:56:21;29.71;47.41
68189;DHT22;66299;47.514;19.218;2023-08-01T10:58:50;29.74;47.61
68189;DHT22;66299;47.514;19.218;2023-08-01T11:01:24;29.67;47.29
68189;DHT22;66299;47.514;19.218;2023-08-01T11:03:56;29.63;48.30
68189;DHT22;66299;47.514;19.218;2023-08-01T11:06:26;29.36;47.76
68189;DHT22;66299;47.514;19.218;2023-08-01T11:08:57;29.56;46.77
68189;DHT22;66299;47.514;19.218;2023-08-01T11:11:29;29.37;48.13
68189;DHT22;66299;47.514;19.218;2023-08-01T11:14:00;30.23;48.18
68189;DHT22;66299;47.514;19.218;2023-08-01T11:16:33;29.89;47.94
68189;DHT22;66299;47.514;19.218;2023-08-01T11:19:04;29.33;47.74
68189;DHT22;66299;47.514;19.218;2023-08-01T11:21:34;29.86;46.59
68189;DHT22;66299;47.514;19.218;2023-08-01T11:24:07;29.86;45.79
68189;DHT22;66299;47.514;19.218;2023-08-01T11:26:42;29.61;45.45
68189;DHT22;66299;47.514;19.218;2023-08-01T11:29:18;29.73;45.95
68189;DHT22;66299;47.514;19.218;2023-08-01T11:31:57;29.58;46.00
68189;DHT22;66299;47.514;19.218;2023-08-01T11:34:27;29.56;46.90
68189;DHT22;66299;47.514;19.218;2023-08-01T11:36:57;29.30;46.65
68189;DHT22;66299;47.514;19.218;2023-08-01T11:39:28;29.98;47.06
68189;DHT22;66299;47.514;19.218;2023-08-01T11:42:00;29.84;46.69
68189;DHT22;66299;47.514;19.218;2023-08-01T11:44:34;29.85;46.22
68189;DHT22;66299;47.514;19.218;2023-08-01T11:47:12;29.82;46.67
68189;DHT22;66299;47.514;19.218;2023-08-01T11:49:47;30.09;46.34
68189;DHT22;66299;47.514;19.218;2023-08-01T11:52:24;30.43;46.77
68189;DHT22;66299;47.514;19.218;2023-08-01T11:54:54;30.59;45.71
68189;DHT22;66299;47.514;19.218;2023-08-01T11:57:26;30.29;45.86
68189;DHT22;66299;47.514;19.218;2023-08-01T11:59:57;30.35;46.48
68189;DHT22;66299;47.514;19.218;2023-08-01T12:02:28;30.25;45.85
68189;DHT22;66299;47.514;19.218;2023-08-01T12:04:59;30.06;45.62
68189;DHT22;66299;47.514;19.218;2023-08-01T12:07:35;29.81;46.00
68189;DHT22;66299;47.514;19.218;2023-08-01T12:10:05;29.95;45.11
68189;DHT22;66299;47.514;19.218;2023-08-01T12:12:45;30.15;45.44
68189;DHT22;66299;47.514;19.218;2023-08-01T12:15:17;30.44;44.93
68189;DHT22;66299;47.514;19.218;2023-08-01T12:17:50;29.89;45.17
68189;DHT22;66299;47.514;19.218;2023-08-01T12:20:20;29.77;45.92
68189;DHT22;66299;47.514;19.218;2023-08-01T12:22:50;30.21;45.13
68189;DHT22;66299;47.514;19.218;2023-08-01T12:25:19;30.06;45.84
68189;DHT22;66299;47.514;19.218;2023-08-01T12:27:50;29.86;45.86
68189;DHT22;66299;47.514;19.218;2023-08-01T12:30:20;30.05;45.51
68189;DHT22;66299;47.514;19.218;2023-08-01T12:32:51;29.84;46.63
68189;DHT22;66299;47.514;19.218;2023-08-01T12:35:22;29.82;46.26
68189;DHT22;66299;47.514;19.218;2023-08-01T12:37:52;30.00;45.55
68189;DHT22;66299;47.514;19.218;2023-08-01T12:40:25;29.67;46.08
68189;DHT22;66299;47.514;19.218;2023-08-01T12:42:56;29.44;46.29
68189;DHT22;66299;47.514;19.218;2023-08-01T12:45:25;29.58;46.74
68189;DHT22;66299;47.514;19.218;2023-08-01T12:47:59;29.54;46.46
68189;DHT22;66299;47.514;19.218;2023-08-01T12:50:28;29.77;45.98
68189;DHT22;66299;47.514;19.218;2023-08-01T12:53:11;29.58;44.95
68189;DHT22;66299;47.514;19.218;2023-08-01T12:55:44;29.89;45.10
68189;DHT22;66299;47.514;19.218;2023-08-01T12:58:13;29.85;44.51
68189;DHT22;66299;47.514;19.218;2023-08-01T13:00:45;29.82;43.61
68189;DHT22;66299;47.514;19.218;2023-08-01T13:03:17;29.82;44.50
68189;DHT22;66299;47.514;19.218;2023-08-01T13:05:46;29.74;43.71
68189;DHT22;66299;47.514;19.218;2023-08-01T13:08:14;29.54;44.67
68189;DHT22;66299;47.514;19.218;2023-08-01T13:10:48;29.71;44.24
68189;DHT22;66299;47.514;19.218;2023-08-01T13:13:21;29.86;45.63
68189;DHT22;66299;47.514;19.218;2023-08-01T13:15:51;29.60;44.67
68189;DHT22;66299;47.514;19.218;2023-08-01T13:18:27;29.65;44.50
68189;DHT22;66299;47.514;19.218;2023-08-01T13:20:56;29.53;44.75
68189;DHT22;66299;47.514;19.218;2023-08-01T13:23:32;29.70;45.04
68189;DHT22;66299;47.514;19.218;2023-08-01T13:26:04;29.77;46.14
68189;DHT22;66299;47.514;19.218;2023-08-01T13:28:44;29.46;43.92
68189;DHT22;66299;47.514;19.218;2023-08-01T13:31:12;29.64;44.62
68189;DHT22;66299;47.514;19.218;2023-08-01T13:33:43;29.68;45.14
68189;DHT22;66299;47.514;19.218;2023-08-01T13:36:12;29.67;45.75
68189;DHT22;66299;47.514;19.218;2023-08-01T13:38:40;29.49;45.84
68189;DHT22;66299;47.514;19.218;2023-08-01T13:41:13;29.47;46.29
68189;DHT22;66299;47.514;19.218;2023-08-01T13:43:41;29.85;44.80
68189;DHT22;66299;47.514;19.218;2023-08-01T13:46:12;30.22;44.25
68189;DHT22;66299;47.514;19.218;2023-08-01T13:48:57;30.22;42.65
68189;DHT22;66299;47.514;19.218;2023-08-01T13:51:26;30.31;43.45
68189;DHT22;66299;47.514;19.218;2023-08-01T13:53:59;30.19;42.42
68189;DHT22;66299;47.514;19.218;2023-08-01T13:56:28;30.19;42.88
68189;DHT22;66299;47.514;19.218;2023-08-01T13:58:56;30.39;42.92
68189;DHT22;66299;47.514;19.218;2023-08-01T14:01:25;30.74;42.38
68189;DHT22;66299;47.514;19.218;2023-08-01T14:03:54;30.73;42.40
68189;DHT22;66299;47.514;19.218;2023-08-01T14:06:24;30.80;43.02
68189;DHT22;66299;47.514;19.218;2023-08-01T14:08:52;30.80;43.59
68189;DHT22;66299;47.514;19.218;2023-08-01T14:11:21;31.04;42.80
68189;DHT22;66299;47.514;19.218;2023-08-01T14:13:50;30.63;43.05
68189;DHT22;66299;47.514;19.218;2023-08-01T14:16:23;30.21;44.02
68189;DHT22;66299;47.514;19.218;2023-08-01T14:18:53;29.77;45.72
68189;DHT22;66299;47.514;19.218;2023-08-01T14:21:24;29.88;44.30
68189;DHT22;66299;47.514;19.218;2023-08-01T14:23:53;30.02;43.68
68189;DHT22;66299;47.514;19.218;2023-08-01T14:26:24;30.15;43.71
68189;DHT22;66299;47.514;19.218;2023-08-01T14:28:53;30.46;44.42
68189;DHT22;66299;47.514;19.218;2023-08-01T14:31:21;30.55;43.94
68189;DHT22;66299;47.514;19.218;2023-08-01T14:33:52;30.26;41.85
68189;DHT22;66299;47.514;19.218;2023-08-01T14:36:26;30.05;43.11
68189;DHT22;66299;47.514;19.218;2023-08-01T14:38:55;29.58;43.41
68189;DHT22;66299;47.514;19.218;2023-08-01T14:41:35;29.61;43.05
68189;DHT22;66299;47.514;19.218;2023-08-01T14:44:25;29.56;43.60
68189;DHT22;66299;47.514;19.218;2023-08-01T14:46:55;29.73;43.36
68189;DHT22;66299;47.514;19.218;2023-08-01T14:49:25;29.67;44.15
68189;DHT22;66299;47.514;19.218;2023-08-01T14:52:00;29.38;43.44
68189;DHT22;66299;47.514;19.218;2023-08-01T14:54:30;29.58;44.40
68189;DHT22;66299;47.514;19.218;2023-08-01T14:57:07;29.88;44.18
68189;DHT22;66299;47.514;19.218;2023-08-01T14:59:37;29.91;43.54
68189;DHT22;66299;47.514;19.218;2023-08-01T15:02:07;29.89;43.77
68189;DHT22;66299;47.514;19.218;2023-08-01T15:04:38;29.67;44.65
68189;DHT22;66299;47.514;19.218;2023-08-01T15:07:08;29.31;45.33
68189;DHT22;66299;47.514;19.218;2023-08-01T15:09:43;29.29;45.10
68189;DHT22;66299;47.514;19.218;2023-08-01T15:12:11;29.23;46.85
68189;DHT22;66299;47.514;19.218;2023-08-01T15:14:44;29.25;46.15
68189;DHT22;66299;47.514;19.218;2023-08-01T15:17:13;29.23;46.73
68189;DHT22;66299;47.514;19.218;2023-08-01T15:19:42;29.26;46.66
68189;DHT22;66299;47.514;19.218;2023-08-01T15:22:16;29.27;47.24
68189;DHT22;66299;47.514;19.218;2023-08-01T15:24:50;29.17;47.43
68189;DHT22;66299;47.514;19.218;2023-08-01T15:27:20;29.13;47.88
68189;DHT22;66299;47.514;19.218;2023-08-01T15:29:58;29.16;46.42
68189;DHT22;66299;47.514;19.218;2023-08-01T15:32:27;28.89;47.71
68189;DHT22;66299;47.514;19.218;2023-08-01T15:34:55;28.74;47.96
68189;DHT22;66299;47.514;19.218;2023-08-01T15:37:27;28.68;47.19
68189;DHT22;66299;47.514;19.218;2023-08-01T15:39:55;28.65;47.36